createdAt,value
2022-11-29T00:00:16.649Z,26.60
2022-11-29T00:03:09.702Z,25.20
2022-11-29T00:05:43.056Z,25.47
2022-11-29T00:08:16.131Z,25.17
2022-11-29T00:10:49.220Z,22.97
2022-11-29T00:13:22.643Z,24.10
2022-11-29T00:15:55.917Z,24.10
2022-11-29T00:18:28.880Z,26.50
2022-11-29T00:21:02.696Z,23.73
2022-11-29T00:23:35.520Z,25.43
2022-11-29T00:26:12.464Z,24.57
2022-11-29T00:28:45.990Z,24.47
2022-11-29T00:31:22.379Z,22.93
2022-11-29T00:33:55.655Z,23.23
2022-11-29T00:36:29.659Z,25.17
2022-11-29T00:39:02.686Z,22.23
2022-11-29T00:41:36.775Z,23.67
2022-11-29T00:44:15.334Z,22.77
2022-11-29T00:46:51.834Z,23.73
2022-11-29T00:49:24.773Z,23.23
2022-11-29T00:51:57.759Z,22.20
2022-11-29T00:54:31.124Z,23.80
2022-11-29T00:57:03.901Z,25.73
2022-11-29T00:59:36.861Z,23.50
2022-11-29T01:02:09.954Z,25.37
2022-11-29T01:04:43.359Z,25.50
2022-11-29T01:07:16.826Z,23.50
2022-11-29T01:09:50.451Z,27.00
2022-11-29T01:12:23.443Z,24.53
2022-11-29T01:14:56.348Z,24.17
2022-11-29T01:17:29.237Z,24.67
2022-11-29T01:20:02.187Z,23.00
2022-11-29T01:22:35.326Z,24.43
2022-11-29T01:25:12.105Z,27.57
2022-11-29T01:27:45.386Z,25.47
2022-11-29T01:30:18.489Z,24.57
2022-11-29T01:32:52.311Z,25.27
2022-11-29T01:35:25.446Z,27.37
2022-11-29T01:37:58.653Z,24.80
2022-11-29T01:40:31.709Z,26.77
2022-11-29T01:43:07.422Z,28.53
2022-11-29T01:45:41.273Z,24.27
2022-11-29T01:48:15.755Z,28.23
2022-11-29T01:50:48.712Z,29.03
2022-11-29T01:53:22.679Z,28.53
2022-11-29T01:55:59.320Z,29.00
2022-11-29T01:58:32.911Z,25.07
2022-11-29T02:01:05.898Z,30.17
2022-11-29T02:03:38.998Z,26.07
2022-11-29T02:06:12.021Z,25.10
2022-11-29T02:08:46.347Z,27.53
2022-11-29T02:11:44.079Z,28.07
2022-11-29T02:14:37.844Z,26.83
2022-11-29T02:17:20.277Z,30.10
2022-11-29T02:20:27.162Z,31.23
2022-11-29T02:23:12.412Z,29.27
2022-11-29T02:26:00.570Z,28.40
2022-11-29T02:28:59.860Z,28.67
2022-11-29T02:32:02.832Z,29.93
2022-11-29T02:37:39.946Z,27.40
2022-11-29T02:40:30.222Z,30.00
2022-11-29T02:43:38.129Z,29.53
2022-11-29T02:46:26.376Z,29.83
2022-11-29T02:49:08.665Z,30.77
2022-11-29T02:51:48.523Z,29.27
2022-11-29T02:54:27.934Z,29.90
2022-11-29T02:57:07.440Z,28.73
2022-11-29T02:59:50.305Z,28.73
2022-11-29T03:05:11.678Z,32.07
2022-11-29T03:07:57.741Z,28.90
2022-11-29T03:10:44.838Z,28.10
2022-11-29T03:13:24.934Z,30.73
2022-11-29T03:16:07.558Z,30.23
2022-11-29T03:21:34.100Z,30.37
2022-11-29T03:24:15.524Z,30.47
2022-11-29T03:26:53.779Z,28.70
2022-11-29T03:29:34.409Z,30.33
2022-11-29T03:32:17.656Z,31.40
2022-11-29T03:35:00.916Z,32.07
2022-11-29T03:37:47.223Z,33.63
2022-11-29T03:40:24.260Z,33.30
2022-11-29T03:43:02.207Z,32.10
2022-11-29T03:45:41.349Z,32.57
2022-11-29T03:48:20.303Z,32.60
2022-11-29T03:51:01.357Z,34.80
2022-11-29T03:53:38.748Z,31.73
2022-11-29T03:59:21.015Z,32.80
2022-11-29T04:02:31.498Z,32.00
2022-11-29T04:05:46.680Z,30.03
2022-11-29T04:09:01.004Z,33.93
2022-11-29T04:12:06.349Z,33.07
2022-11-29T04:15:37.947Z,32.77
2022-11-29T04:18:50.557Z,33.70
2022-11-29T04:21:49.821Z,31.62
2022-11-29T04:25:00.089Z,34.50
2022-11-29T04:28:05.402Z,32.43
2022-11-29T04:30:49.506Z,31.50
2022-11-29T04:34:03.225Z,30.57
2022-11-29T04:36:57.693Z,30.47
2022-11-29T04:39:47.484Z,32.33
2022-11-29T04:42:51.054Z,31.90
2022-11-29T04:45:52.244Z,33.83
2022-11-29T04:48:48.727Z,35.08
2022-11-29T04:51:37.425Z,34.40
2022-11-29T04:54:20.939Z,32.63
2022-11-29T04:57:03.550Z,36.83
2022-11-29T05:02:29.822Z,36.13
2022-11-29T05:05:15.898Z,30.53
2022-11-29T05:07:58.534Z,35.17
2022-11-29T05:10:39.080Z,30.77
2022-11-29T05:13:20.858Z,34.33
2022-11-29T05:16:10.248Z,35.80
2022-11-29T05:19:28.471Z,32.50
2022-11-29T05:22:14.144Z,35.30
2022-11-29T05:25:00.237Z,31.57
2022-11-29T05:27:46.124Z,36.40
2022-11-29T05:30:23.491Z,31.07
2022-11-29T05:33:12.165Z,32.50
2022-11-29T05:36:08.225Z,34.20
2022-11-29T05:39:09.127Z,30.13
2022-11-29T05:41:55.625Z,32.50
2022-11-29T05:44:35.667Z,36.20
2022-11-29T05:47:11.532Z,33.30
2022-11-29T05:49:55.680Z,33.83
2022-11-29T05:52:41.361Z,36.23
2022-11-29T05:55:26.643Z,29.53
2022-11-29T05:58:03.881Z,34.70
2022-11-29T06:00:44.786Z,37.17
2022-11-29T06:03:26.893Z,33.00
2022-11-29T06:06:03.514Z,34.33
2022-11-29T06:08:44.733Z,33.73
2022-11-29T06:11:23.453Z,32.87
2022-11-29T06:14:10.273Z,32.23
2022-11-29T06:16:58.505Z,36.33
2022-11-29T06:20:09.391Z,33.70
2022-11-29T06:23:12.880Z,35.50
2022-11-29T06:26:03.897Z,34.13
2022-11-29T06:28:53.867Z,35.07
2022-11-29T06:31:29.893Z,37.40
2022-11-29T06:34:09.304Z,37.87
2022-11-29T06:36:50.029Z,35.30
2022-11-29T06:39:25.815Z,35.13
2022-11-29T06:41:59.680Z,37.10
2022-11-29T06:44:33.517Z,35.87
2022-11-29T06:47:10.715Z,39.17
2022-11-29T06:49:49.823Z,34.43
2022-11-29T06:52:29.796Z,38.20
2022-11-29T06:55:16.075Z,36.50
2022-11-29T06:58:01.316Z,34.63
2022-11-29T07:00:44.096Z,38.13
2022-11-29T07:03:39.750Z,37.47
2022-11-29T07:06:18.055Z,40.50
2022-11-29T07:08:54.409Z,38.93
2022-11-29T07:11:30.132Z,38.97
2022-11-29T07:14:05.296Z,38.47
2022-11-29T07:16:55.893Z,38.87
2022-11-29T07:19:42.505Z,40.05
2022-11-29T07:22:35.354Z,38.33
2022-11-29T07:25:20.833Z,39.27
2022-11-29T07:28:04.059Z,40.30
2022-11-29T07:30:44.597Z,38.17
2022-11-29T07:33:26.161Z,41.17
2022-11-29T07:36:08.345Z,41.27
2022-11-29T07:38:54.919Z,38.95
2022-11-29T07:41:38.983Z,39.87
2022-11-29T07:44:22.713Z,37.90
2022-11-29T07:46:56.262Z,40.20
2022-11-29T07:49:30.442Z,37.83
2022-11-29T07:52:04.018Z,40.43
2022-11-29T07:54:37.599Z,41.60
2022-11-29T07:57:11.062Z,40.03
2022-11-29T07:59:44.793Z,42.73
2022-11-29T08:02:27.459Z,42.07
2022-11-29T08:07:35.215Z,40.33
2022-11-29T08:10:11.582Z,38.07
2022-11-29T08:12:48.499Z,35.77
2022-11-29T08:15:23.219Z,41.03
2022-11-29T08:17:56.597Z,38.07
2022-11-29T08:20:29.971Z,37.90
2022-11-29T08:23:03.782Z,41.43
2022-11-29T08:25:37.875Z,39.20
2022-11-29T08:28:11.389Z,39.30
2022-11-29T08:30:44.986Z,41.97
2022-11-29T08:33:18.585Z,42.63
2022-11-29T08:35:54.642Z,40.47
2022-11-29T08:38:27.512Z,42.03
2022-11-29T08:41:03.947Z,41.93
2022-11-29T08:43:37.696Z,40.97
2022-11-29T08:46:17.983Z,42.73
2022-11-29T08:48:52.395Z,38.87
2022-11-29T08:51:25.716Z,39.97
2022-11-29T08:53:59.057Z,40.17
2022-11-29T08:57:16.370Z,43.77
2022-11-29T08:59:25.162Z,41.47
2022-11-29T09:01:58.771Z,39.50
2022-11-29T09:04:32.294Z,44.57
2022-11-29T09:07:05.769Z,43.90
2022-11-29T09:09:38.954Z,37.70
2022-11-29T09:12:12.282Z,40.37
2022-11-29T09:14:45.719Z,44.33
2022-11-29T09:17:19.474Z,41.80
2022-11-29T09:19:52.678Z,39.90
2022-11-29T09:22:25.849Z,35.90
2022-11-29T09:24:59.102Z,34.70
2022-11-29T09:27:32.637Z,36.77
2022-11-29T09:30:06.783Z,36.70
2022-11-29T09:32:40.250Z,35.10
2022-11-29T09:35:13.858Z,34.17
2022-11-29T09:37:47.246Z,36.03
2022-11-29T09:40:24.837Z,33.13
2022-11-29T09:43:04.378Z,30.67
2022-11-29T09:45:43.644Z,32.03
2022-11-29T09:48:47.920Z,32.07
2022-11-29T09:51:29.717Z,33.83
2022-11-29T09:54:22.506Z,32.03
2022-11-29T09:59:34.086Z,30.80
2022-11-29T10:02:21.082Z,28.70
2022-11-29T10:05:01.259Z,28.37
2022-11-29T10:07:40.859Z,24.17
2022-11-29T10:10:20.034Z,24.27
2022-11-29T10:12:56.647Z,19.93
2022-11-29T10:15:33.106Z,19.07
2022-11-29T10:18:14.006Z,17.77
2022-11-29T10:20:50.959Z,16.47
2022-11-29T10:23:31.467Z,14.90
2022-11-29T10:26:08.296Z,16.73
2022-11-29T10:28:47.766Z,16.67
2022-11-29T10:31:25.678Z,15.80
2022-11-29T10:34:02.390Z,15.77
2022-11-29T10:36:42.042Z,16.53
2022-11-29T10:39:22.836Z,15.43
2022-11-29T10:42:01.151Z,14.47
2022-11-29T10:44:35.316Z,13.17
2022-11-29T10:47:11.069Z,13.87
2022-11-29T10:49:44.816Z,13.47
2022-11-29T10:52:22.301Z,14.00
2022-11-29T10:55:00.226Z,16.67
2022-11-29T10:57:35.035Z,15.17
2022-11-29T11:00:16.111Z,15.07
2022-11-29T11:02:49.806Z,16.27
2022-11-29T11:05:28.597Z,15.50
2022-11-29T11:08:05.521Z,16.57
2022-11-29T11:10:39.695Z,15.00
2022-11-29T11:13:25.255Z,13.80
2022-11-29T11:16:10.891Z,15.80
2022-11-29T11:18:44.523Z,14.27
2022-11-29T11:21:20.368Z,15.40
2022-11-29T11:23:59.315Z,14.00
2022-11-29T11:26:46.231Z,12.50
2022-11-29T11:29:22.889Z,13.17
2022-11-29T11:31:58.248Z,14.97
2022-11-29T11:34:35.300Z,13.97
2022-11-29T11:37:26.621Z,13.80
2022-11-29T11:40:02.374Z,13.50
2022-11-29T11:42:40.674Z,12.13
2022-11-29T11:45:32.740Z,13.27
2022-11-29T11:48:14.045Z,13.08
2022-11-29T11:50:53.208Z,16.10
2022-11-29T11:53:28.966Z,12.70
2022-11-29T11:56:05.622Z,11.63
2022-11-29T11:58:47.001Z,14.23
2022-11-29T12:01:28.857Z,11.90
2022-11-29T12:04:07.802Z,9.75
2022-11-29T12:06:47.876Z,12.00
2022-11-29T12:09:38.083Z,10.37
2022-11-29T12:12:25.286Z,12.10
2022-11-29T12:15:02.687Z,11.87
2022-11-29T12:17:39.960Z,11.20
2022-11-29T12:20:23.837Z,11.50
2022-11-29T12:23:21.019Z,13.00
2022-11-29T12:25:58.903Z,10.60
2022-11-29T12:28:35.099Z,11.33
2022-11-29T12:31:20.305Z,11.00
2022-11-29T12:34:05.522Z,11.93
2022-11-29T12:36:48.746Z,11.03
2022-11-29T12:39:45.851Z,11.43
2022-11-29T12:42:28.303Z,10.07
2022-11-29T12:45:06.613Z,10.93
2022-11-29T12:47:52.137Z,11.27
2022-11-29T12:50:40.842Z,14.87
2022-11-29T12:53:30.212Z,12.00
2022-11-29T12:56:16.314Z,10.83
2022-11-29T12:58:58.815Z,12.20
2022-11-29T13:01:42.356Z,12.47
2022-11-29T13:04:24.136Z,11.83
2022-11-29T13:07:04.446Z,12.58
2022-11-29T13:09:58.574Z,13.57
2022-11-29T13:12:40.986Z,10.37
2022-11-29T13:15:20.043Z,11.63
2022-11-29T13:17:59.238Z,10.50
2022-11-29T13:20:40.199Z,12.20
2022-11-29T13:23:38.997Z,10.63
2022-11-29T13:26:19.630Z,10.97
2022-11-29T13:28:53.979Z,11.23
2022-11-29T13:31:28.152Z,10.50
2022-11-29T13:34:08.551Z,12.27
2022-11-29T13:36:55.873Z,10.63
2022-11-29T13:39:43.399Z,12.50
2022-11-29T13:42:24.580Z,10.97
2022-11-29T13:45:04.737Z,12.00
2022-11-29T13:47:51.844Z,12.70
2022-11-29T13:50:42.391Z,11.97
2022-11-29T13:53:20.471Z,9.73
2022-11-29T13:56:01.942Z,12.53
2022-11-29T13:58:41.544Z,13.00
2022-11-29T14:01:16.689Z,11.87
2022-11-29T14:04:02.593Z,14.97
2022-11-29T14:06:40.199Z,12.97
2022-11-29T14:09:35.390Z,12.57
2022-11-29T14:12:27.625Z,12.83
2022-11-29T14:15:05.862Z,12.25
2022-11-29T14:17:51.270Z,15.30
2022-11-29T14:21:00.879Z,14.03
2022-11-29T14:23:46.974Z,13.70
2022-11-29T14:26:33.369Z,15.07
2022-11-29T14:29:42.474Z,14.20
2022-11-29T14:32:26.105Z,13.00
2022-11-29T14:35:05.649Z,13.60
2022-11-29T14:38:04.231Z,12.50
2022-11-29T14:40:47.983Z,13.80
2022-11-29T14:43:30.273Z,15.50
2022-11-29T14:46:29.674Z,13.63
2022-11-29T14:49:05.718Z,12.33
2022-11-29T14:51:39.333Z,12.23
2022-11-29T14:54:19.740Z,11.67
2022-11-29T14:56:53.839Z,12.70
2022-11-29T14:59:52.695Z,10.77
2022-11-29T15:02:33.692Z,11.90
2022-11-29T15:05:18.946Z,11.23
2022-11-29T15:08:02.572Z,11.43
2022-11-29T15:10:41.320Z,10.53
2022-11-29T15:13:20.628Z,11.50
2022-11-29T15:16:15.485Z,11.30
2022-11-29T15:19:14.931Z,10.97
2022-11-29T15:21:56.216Z,10.85
2022-11-29T15:24:30.114Z,11.93
2022-11-29T15:27:05.029Z,11.70
2022-11-29T15:29:38.323Z,12.83
2022-11-29T15:32:18.889Z,12.47
2022-11-29T15:34:54.441Z,13.40
2022-11-29T15:37:44.768Z,12.43
2022-11-29T15:40:20.572Z,12.30
2022-11-29T15:42:58.102Z,12.43
2022-11-29T15:45:36.594Z,12.33
2022-11-29T15:48:24.815Z,12.27
2022-11-29T15:51:06.055Z,13.27
2022-11-29T15:53:42.941Z,12.47
2022-11-29T15:56:22.384Z,12.57
2022-11-29T15:59:01.658Z,13.10
2022-11-29T16:01:36.414Z,13.73
2022-11-29T16:04:19.314Z,12.83
2022-11-29T16:06:53.397Z,13.33
2022-11-29T16:09:35.713Z,12.17
2022-11-29T16:14:56.011Z,13.37
2022-11-29T16:17:32.979Z,14.33
2022-11-29T16:20:26.265Z,15.20
2022-11-29T16:23:13.232Z,13.43
2022-11-29T16:25:59.724Z,13.90
2022-11-29T16:28:36.151Z,13.13
2022-11-29T16:31:12.423Z,16.47
2022-11-29T16:33:50.353Z,15.00
2022-11-29T16:36:26.719Z,15.70
2022-11-29T16:39:06.566Z,13.07
2022-11-29T16:41:40.704Z,14.60
2022-11-29T16:44:51.083Z,14.40
2022-11-29T16:47:27.564Z,15.03
2022-11-29T16:50:24.699Z,13.47
2022-11-29T16:53:19.191Z,14.40
2022-11-29T16:55:53.133Z,14.70
2022-11-29T16:58:26.906Z,13.13
2022-11-29T17:01:02.869Z,14.63
2022-11-29T17:03:36.597Z,11.93
2022-11-29T17:06:12.413Z,14.90
2022-11-29T17:08:46.631Z,14.70
2022-11-29T17:11:19.892Z,13.00
2022-11-29T17:13:54.014Z,15.13
2022-11-29T17:16:27.662Z,14.90
2022-11-29T17:19:08.663Z,15.27
2022-11-29T17:21:42.471Z,12.63
2022-11-29T17:24:18.873Z,13.37
2022-11-29T17:26:54.209Z,14.40
2022-11-29T17:29:27.413Z,15.27
2022-11-29T17:32:00.540Z,14.23
2022-11-29T17:34:33.651Z,13.83
2022-11-29T17:37:54.826Z,12.20
2022-11-29T17:40:33.864Z,14.67
2022-11-29T17:43:07.932Z,13.40
2022-11-29T17:45:42.508Z,13.87
2022-11-29T17:48:16.015Z,12.37
2022-11-29T17:51:00.502Z,14.63
2022-11-29T17:53:34.403Z,13.57
2022-11-29T17:56:10.043Z,15.10
2022-11-29T17:58:43.898Z,14.13
2022-11-29T18:01:24.499Z,15.00
2022-11-29T18:03:59.990Z,13.77
2022-11-29T18:06:37.737Z,14.40
2022-11-29T18:09:13.960Z,13.30
2022-11-29T18:11:50.287Z,15.87
2022-11-29T18:14:28.577Z,16.23
2022-11-29T18:17:11.585Z,14.50
2022-11-29T18:19:45.151Z,12.45
2022-11-29T18:22:19.972Z,16.77
2022-11-29T18:25:01.130Z,13.27
2022-11-29T18:27:49.514Z,15.60
2022-11-29T18:30:38.372Z,15.10
2022-11-29T18:33:17.385Z,15.73
2022-11-29T18:35:54.504Z,13.93
2022-11-29T18:38:27.424Z,14.23
2022-11-29T18:41:00.948Z,12.87
2022-11-29T18:43:40.322Z,13.07
2022-11-29T18:46:16.780Z,13.17
2022-11-29T18:49:04.662Z,12.13
2022-11-29T18:51:52.507Z,13.07
2022-11-29T18:54:25.857Z,13.30
2022-11-29T18:56:59.638Z,13.17
2022-11-29T18:59:32.679Z,11.80
2022-11-29T19:02:15.327Z,11.90
2022-11-29T19:04:55.832Z,11.33
2022-11-29T19:07:29.908Z,11.10
2022-11-29T19:10:02.901Z,12.50
2022-11-29T19:12:35.911Z,10.70
2022-11-29T19:15:10.601Z,10.73
2022-11-29T19:17:53.609Z,12.80
2022-11-29T19:20:53.649Z,11.83
2022-11-29T19:23:33.995Z,12.47
2022-11-29T19:26:27.881Z,11.93
2022-11-29T19:29:18.354Z,11.53
2022-11-29T19:32:15.130Z,12.67
2022-11-29T19:35:24.408Z,11.50
2022-11-29T19:38:04.485Z,11.73
2022-11-29T19:41:01.410Z,11.53
2022-11-29T19:43:48.546Z,12.23
2022-11-29T19:46:37.638Z,12.70
2022-11-29T19:49:11.824Z,12.03
2022-11-29T19:51:45.209Z,11.30
2022-11-29T19:54:25.296Z,11.73
2022-11-29T19:56:59.087Z,10.97
2022-11-29T19:59:34.197Z,12.13
2022-11-29T20:02:07.658Z,10.83
2022-11-29T20:04:42.244Z,10.60
2022-11-29T20:07:15.479Z,10.57
2022-11-29T20:09:49.095Z,11.63
2022-11-29T20:12:33.480Z,11.93
2022-11-29T20:15:08.263Z,11.33
2022-11-29T20:17:42.904Z,10.90
2022-11-29T20:20:18.501Z,11.03
2022-11-29T20:22:53.817Z,12.30
2022-11-29T20:25:27.495Z,11.13
2022-11-29T20:28:18.514Z,11.43
2022-11-29T20:30:54.584Z,9.93
2022-11-29T20:33:28.827Z,11.37
2022-11-29T20:36:18.250Z,10.70
2022-11-29T20:39:01.805Z,10.30
2022-11-29T20:41:42.744Z,11.03
2022-11-29T20:44:19.628Z,11.33
2022-11-29T20:46:54.987Z,11.47
2022-11-29T20:49:29.192Z,10.93
2022-11-29T20:52:07.322Z,10.63
2022-11-29T20:54:40.631Z,11.37
2022-11-29T20:57:14.001Z,10.27
2022-11-29T20:59:47.238Z,11.17
2022-11-29T21:02:21.319Z,9.90
2022-11-29T21:04:54.322Z,10.90
2022-11-29T21:07:27.424Z,10.97
2022-11-29T21:10:01.591Z,11.37
2022-11-29T21:12:38.888Z,10.13
2022-11-29T21:15:15.553Z,11.17
2022-11-29T21:17:49.200Z,9.60
2022-11-29T21:20:26.551Z,11.77
2022-11-29T21:23:06.711Z,11.53
2022-11-29T21:25:49.316Z,11.27
2022-11-29T21:28:26.298Z,11.22
2022-11-29T21:30:59.974Z,11.30
2022-11-29T21:33:33.950Z,11.63
2022-11-29T21:36:07.600Z,10.97
2022-11-29T21:38:40.950Z,10.27
2022-11-29T21:41:13.935Z,10.07
2022-11-29T21:46:39.933Z,11.17
2022-11-29T21:49:12.939Z,11.13
2022-11-29T21:51:48.866Z,12.07
2022-11-29T21:54:22.135Z,12.17
2022-11-29T21:56:55.121Z,11.47
2022-11-29T21:59:28.195Z,11.23
2022-11-29T22:02:01.313Z,11.13
2022-11-29T22:04:34.282Z,12.93
2022-11-29T22:07:07.341Z,13.23
2022-11-29T22:09:40.253Z,13.13
2022-11-29T22:12:32.946Z,11.17
2022-11-29T22:15:07.339Z,11.97
2022-11-29T22:17:40.338Z,13.47
2022-11-29T22:20:14.446Z,16.03
2022-11-29T22:22:48.748Z,14.13
2022-11-29T22:25:21.634Z,13.77
2022-11-29T22:27:55.377Z,12.13
2022-11-29T22:30:28.571Z,11.50
2022-11-29T22:33:01.572Z,15.03
2022-11-29T22:35:34.431Z,12.53
2022-11-29T22:38:07.250Z,12.73
2022-11-29T22:40:40.883Z,13.43
2022-11-29T22:43:13.903Z,14.03
2022-11-29T22:45:48.857Z,11.57
2022-11-29T22:48:26.326Z,13.47
2022-11-29T22:51:07.672Z,14.47
2022-11-29T22:53:43.488Z,12.57
2022-11-29T22:56:19.864Z,15.07
2022-11-29T22:59:03.973Z,13.83
2022-11-29T23:01:41.207Z,14.20
2022-11-29T23:04:15.969Z,12.97
2022-11-29T23:06:49.239Z,14.67
2022-11-29T23:09:23.667Z,15.80
2022-11-29T23:11:58.105Z,14.50
2022-11-29T23:14:30.830Z,14.60
2022-11-29T23:17:03.773Z,13.50
2022-11-29T23:19:37.009Z,15.20
2022-11-29T23:22:10.189Z,14.43
2022-11-29T23:24:43.875Z,15.20
2022-11-29T23:27:17.260Z,15.90
2022-11-29T23:29:50.288Z,14.23
2022-11-29T23:32:23.184Z,14.70
2022-11-29T23:34:57.163Z,14.57
2022-11-29T23:37:30.173Z,13.53
2022-11-29T23:40:03.139Z,15.90
2022-11-29T23:42:36.016Z,15.00
2022-11-29T23:45:10.105Z,14.73
2022-11-29T23:47:43.149Z,13.97
2022-11-29T23:50:16.271Z,16.27
2022-11-29T23:52:55.223Z,16.27
2022-11-29T23:55:28.604Z,14.90
2022-11-29T23:58:03.557Z,16.47
